Time;durP1;ratioP1;P1;durP2;ratioP2;P2;SDS_P1;SDS_P2;PMS_P1;PMS_P2;Temp;Humidity;BMP_temperature;BMP_pressure;BME280_temperature;BME280_humidity;BME280_pressure;Samples;Min_cycle;Max_cycle;Signal;HPM_P1;HPM_P2
2021/11/11 00:01:13;;;;;;;15.80;8.45;;;;;;;2.35;100.00;101779.75;4956845;28;20059;-82
2021/11/11 00:03:45;;;;;;;13.90;8.82;;;;;;;2.37;100.00;101785.88;4962609;28;20097;-78
2021/11/11 00:06:12;;;;;;;15.23;9.30;;;;;;;2.40;100.00;101789.47;4941503;28;20043;-81
2021/11/11 00:08:39;;;;;;;14.77;9.65;;;;;;;2.50;100.00;101793.31;4959939;28;20057;-80
2021/11/11 00:11:08;;;;;;;15.90;10.30;;;;;;;2.60;100.00;101792.91;4956687;28;20134;-79
2021/11/11 00:13:35;;;;;;;14.35;8.88;;;;;;;2.76;100.00;101788.38;4956909;28;20085;-80
2021/11/11 00:16:04;;;;;;;20.98;9.82;;;;;;;2.88;100.00;101780.22;4935130;28;20276;-86
2021/11/11 00:18:31;;;;;;;13.05;9.02;;;;;;;3.00;100.00;101785.91;4955154;28;20481;-79
2021/11/11 00:20:58;;;;;;;13.23;8.45;;;;;;;3.11;100.00;101786.34;4930959;28;20094;-81
2021/11/11 00:23:27;;;;;;;17.95;8.52;;;;;;;3.21;100.00;101795.34;4971258;28;20055;-82
2021/11/11 00:25:54;;;;;;;18.38;9.25;;;;;;;3.30;100.00;101787.94;4976135;28;20046;-79
2021/11/11 00:28:23;;;;;;;17.13;9.38;;;;;;;3.41;100.00;101796.13;4972068;28;20058;-78
2021/11/11 00:30:53;;;;;;;11.77;6.80;;;;;;;3.51;100.00;101789.59;4969901;28;20058;-80
2021/11/11 00:33:20;;;;;;;11.48;8.57;;;;;;;3.62;100.00;101793.47;4970186;28;20136;-79
2021/11/11 00:35:46;;;;;;;12.73;7.75;;;;;;;3.71;100.00;101783.44;4953213;28;20117;-80
2021/11/11 00:38:15;;;;;;;12.63;7.30;;;;;;;3.81;100.00;101774.34;4967220;28;20041;-79
2021/11/11 00:40:44;;;;;;;16.25;8.00;;;;;;;3.89;100.00;101769.44;4967719;28;20055;-83
2021/11/11 00:43:11;;;;;;;12.13;8.30;;;;;;;3.92;100.00;101760.03;4953872;28;20133;-78
2021/11/11 00:45:38;;;;;;;13.05;7.78;;;;;;;3.96;99.93;101764.53;4952026;28;20054;-80
2021/11/11 00:48:06;;;;;;;14.10;8.15;;;;;;;3.99;100.00;101766.34;4952903;28;20125;-80
2021/11/11 00:50:35;;;;;;;11.07;7.38;;;;;;;4.02;99.65;101760.41;4946631;28;20044;-83
2021/11/11 00:53:05;;;;;;;12.95;7.45;;;;;;;4.06;99.60;101751.91;4965854;28;20129;-78
2021/11/11 00:55:32;;;;;;;10.65;7.50;;;;;;;4.10;99.49;101748.59;4948918;28;20046;-83
2021/11/11 00:58:00;;;;;;;10.23;7.43;;;;;;;4.13;99.04;101746.09;4951648;28;20497;-80
2021/11/11 01:00:27;;;;;;;15.27;9.32;;;;;;;4.15;98.59;101752.22;4943710;28;20047;-78
2021/11/11 01:02:54;;;;;;;12.77;7.72;;;;;;;4.14;98.56;101747.88;4963930;28;20911;-81
2021/11/11 01:05:21;;;;;;;12.70;8.32;;;;;;;4.12;98.14;101746.94;4965053;28;20042;-78
2021/11/11 01:07:49;;;;;;;12.23;8.77;;;;;;;4.09;98.00;101747.72;4965391;28;20053;-84
2021/11/11 01:10:18;;;;;;;15.90;8.32;;;;;;;4.07;97.99;101741.59;4943998;28;20421;-79
2021/11/11 01:12:47;;;;;;;13.73;8.38;;;;;;;4.09;98.12;101747.72;4965450;28;20046;-80
2021/11/11 01:15:18;;;;;;;12.70;8.68;;;;;;;4.12;98.21;101747.81;4963350;28;20053;-79
2021/11/11 01:17:45;;;;;;;11.70;7.43;;;;;;;4.17;98.09;101753.16;4964638;28;20404;-79
2021/11/11 01:20:14;;;;;;;14.43;7.72;;;;;;;4.21;97.93;101739.50;4941638;28;20252;-78
2021/11/11 01:22:49;;;;;;;14.20;8.82;;;;;;;4.27;97.75;101742.28;4947525;28;20061;-82
2021/11/11 01:25:21;;;;;;;10.75;6.63;;;;;;;4.34;97.47;101747.66;4948831;28;20043;-80
2021/11/11 01:27:48;;;;;;;10.70;8.65;;;;;;;4.40;97.30;101748.75;4955268;28;20141;-86
2021/11/11 01:30:16;;;;;;;9.93;7.20;;;;;;;4.44;96.73;101754.94;4968422;28;20046;-87
2021/11/11 01:32:45;;;;;;;11.77;8.48;;;;;;;4.45;96.89;101739.44;4960898;28;20054;-83
2021/11/11 01:35:13;;;;;;;11.32;6.90;;;;;;;4.47;96.24;101742.06;4960957;28;20057;-87
2021/11/11 01:37:44;;;;;;;12.77;7.30;;;;;;;4.50;96.33;101739.59;4978629;28;20072;-83
2021/11/11 01:40:12;;;;;;;10.85;6.63;;;;;;;4.50;96.07;101728.31;4952051;28;20154;-80
2021/11/11 01:42:58;;;;;;;11.77;7.00;;;;;;;4.52;96.34;101719.75;4972054;28;20409;-81
2021/11/11 01:45:31;;;;;;;12.55;8.65;;;;;;;4.55;95.99;101711.19;4971014;28;20059;-81
2021/11/11 01:47:59;;;;;;;12.85;7.63;;;;;;;4.57;96.32;101714.75;4955066;28;20090;-79
2021/11/11 01:50:28;;;;;;;11.70;6.60;;;;;;;4.62;95.88;101706.28;4963449;28;20047;-78
2021/11/11 01:52:58;;;;;;;11.82;7.22;;;;;;;4.67;95.66;101697.75;4951679;28;20054;-79
2021/11/11 01:55:25;;;;;;;10.75;7.82;;;;;;;4.68;95.44;101700.44;4950469;28;20046;-80
2021/11/11 01:57:52;;;;;;;14.40;7.15;;;;;;;4.71;95.45;101700.50;4954876;28;20047;-81
2021/11/11 02:00:35;;;;;;;9.07;6.78;;;;;;;4.73;95.13;101708.34;4947490;28;20042;-81
2021/11/11 02:03:06;;;;;;;9.77;7.93;;;;;;;4.72;95.23;101703.97;4964777;28;20060;-80
2021/11/11 02:05:36;;;;;;;9.95;6.75;;;;;;;4.74;95.20;101705.78;4970982;28;20125;-79
2021/11/11 02:08:05;;;;;;;10.23;7.60;;;;;;;4.75;95.07;101697.19;4954480;28;20138;-79
2021/11/11 02:10:34;;;;;;;11.00;8.13;;;;;;;4.78;95.12;101698.97;4948459;28;20050;-79
2021/11/11 02:13:03;;;;;;;13.25;7.63;;;;;;;4.82;94.83;101700.84;4971515;28;20035;-78
2021/11/11 02:15:30;;;;;;;10.88;6.95;;;;;;;4.82;94.77;101700.84;4965138;28;20057;-81
2021/11/11 02:17:56;;;;;;;13.60;7.20;;;;;;;4.81;94.65;101696.50;4950224;28;20055;-78
2021/11/11 02:20:30;;;;;;;11.75;8.18;;;;;;;4.83;94.52;101694.81;4960075;28;20134;-81
2021/11/11 02:22:59;;;;;;;9.73;6.95;;;;;;;4.83;94.47;101692.22;4949715;28;20066;-80
2021/11/11 02:25:28;;;;;;;7.60;6.78;;;;;;;4.85;94.56;101689.69;4931651;28;20686;-78
2021/11/11 02:27:59;;;;;;;10.05;6.55;;;;;;;4.86;94.65;101697.50;4968784;28;20049;-83
2021/11/11 02:30:28;;;;;;;10.57;7.00;;;;;;;4.88;94.54;101697.56;4949058;28;20118;-80
2021/11/11 02:32:55;;;;;;;13.07;7.63;;;;;;;4.88;94.51;101687.19;4949335;28;20053;-78
2021/11/11 02:35:24;;;;;;;8.93;6.20;;;;;;;4.88;94.35;101692.38;4952834;28;20342;-80
2021/11/11 02:37:52;;;;;;;11.15;7.03;;;;;;;4.86;94.54;101694.03;4951841;28;20047;-79
2021/11/11 02:40:25;;;;;;;10.07;6.32;;;;;;;4.86;94.72;101696.63;4931976;28;20761;-80
2021/11/11 02:42:53;;;;;;;10.70;7.18;;;;;;;4.84;94.81;101698.28;4962033;28;20039;-80
2021/11/11 02:45:30;;;;;;;10.50;6.82;;;;;;;4.85;94.71;101713.94;4951874;28;20504;-78
2021/11/11 02:47:59;;;;;;;9.85;6.93;;;;;;;4.85;94.56;101706.16;4964467;28;20059;-78
2021/11/11 02:50:28;;;;;;;11.13;6.93;;;;;;;4.85;94.97;101710.44;4947068;28;20127;-80
2021/11/11 02:52:57;;;;;;;12.07;6.63;;;;;;;4.86;94.66;101704.41;4964884;28;20039;-83
2021/11/11 02:55:24;;;;;;;8.63;6.55;;;;;;;4.88;94.52;101707.97;4966330;28;20046;-80
2021/11/11 02:57:54;;;;;;;11.63;7.35;;;;;;;4.90;94.72;101708.88;4949425;28;20042;-78
2021/11/11 03:00:42;;;;;;;8.50;6.35;;;;;;;4.92;94.60;101704.63;4959371;28;20054;-79
2021/11/11 03:03:09;;;;;;;10.27;6.50;;;;;;;4.94;94.34;101708.13;4947861;28;20051;-82
2021/11/11 03:05:36;;;;;;;10.48;6.63;;;;;;;4.95;94.22;101712.50;4960465;28;20050;-80
2021/11/11 03:08:04;;;;;;;10.07;6.85;;;;;;;4.95;94.00;101718.56;4948858;28;20042;-80
2021/11/11 03:10:35;;;;;;;9.60;6.10;;;;;;;4.93;94.44;101722.81;4960270;28;20406;-80
2021/11/11 03:13:04;;;;;;;10.05;7.43;;;;;;;4.94;94.64;101705.53;4961685;28;20402;-78
2021/11/11 03:15:33;;;;;;;7.97;6.43;;;;;;;4.94;94.52;101716.81;4962735;28;20063;-83
2021/11/11 03:18:00;;;;;;;9.85;7.15;;;;;;;4.95;94.66;101707.28;4930630;28;20057;-81
2021/11/11 03:20:28;;;;;;;13.63;7.82;;;;;;;4.99;94.52;101721.25;4958791;28;20521;-80
2021/11/11 03:22:55;;;;;;;11.30;7.25;;;;;;;5.00;94.46;101723.88;4946317;28;20077;-78
2021/11/11 03:25:29;;;;;;;12.98;6.88;;;;;;;5.01;94.24;101725.66;4944581;28;20050;-83
2021/11/11 03:27:56;;;;;;;8.73;7.20;;;;;;;5.02;93.97;101723.94;4962249;28;20070;-83
2021/11/11 03:30:25;;;;;;;9.50;6.57;;;;;;;5.03;94.38;101724.00;4931750;28;20632;-78
2021/11/11 03:32:54;;;;;;;10.82;5.85;;;;;;;5.02;94.12;101722.25;4961956;28;20043;-83
2021/11/11 03:35:20;;;;;;;13.50;6.53;;;;;;;4.98;94.20;101717.78;4931705;28;20050;-81
2021/11/11 03:37:50;;;;;;;12.70;6.10;;;;;;;4.96;94.27;101722.91;4949649;28;20049;-79
2021/11/11 03:40:24;;;;;;;11.52;7.10;;;;;;;4.97;94.61;101727.28;4927825;28;20051;-83
2021/11/11 03:42:52;;;;;;;9.95;6.30;;;;;;;4.97;94.35;101729.00;4932071;28;20065;-80
2021/11/11 03:45:22;;;;;;;11.90;7.55;;;;;;;4.96;94.38;101725.50;4944303;28;20051;-81
2021/11/11 03:47:49;;;;;;;10.82;7.03;;;;;;;4.97;94.29;101735.06;4968015;28;20117;-80
2021/11/11 03:50:17;;;;;;;10.85;6.95;;;;;;;4.98;94.28;101741.16;4965687;28;20506;-81
2021/11/11 03:52:45;;;;;;;10.55;6.43;;;;;;;4.98;94.33;101738.56;4965547;28;20126;-78
2021/11/11 03:55:18;;;;;;;11.70;6.65;;;;;;;4.99;94.29;101736.81;4946335;28;20129;-79
2021/11/11 03:57:45;;;;;;;11.98;6.63;;;;;;;5.04;94.19;101745.63;4969545;28;20067;-79
2021/11/11 04:00:18;;;;;;;9.40;6.90;;;;;;;5.06;94.13;101743.94;4945314;28;20055;-81
2021/11/11 04:02:47;;;;;;;11.45;6.47;;;;;;;5.06;93.87;101738.75;4968685;28;20042;-78
2021/11/11 04:05:14;;;;;;;9.05;6.40;;;;;;;5.07;93.75;101735.34;4964048;28;20808;-81
2021/11/11 04:07:41;;;;;;;10.40;6.43;;;;;;;5.08;93.88;101731.91;4937691;28;20075;-79
2021/11/11 04:10:10;;;;;;;9.82;7.05;;;;;;;5.08;94.07;101725.00;4961387;28;20046;-79
2021/11/11 04:12:41;;;;;;;11.27;6.45;;;;;;;5.09;93.89;101736.28;4952842;28;20509;-82
2021/11/11 04:15:08;;;;;;;9.88;7.03;;;;;;;5.08;94.29;101731.91;4965448;28;20490;-82
2021/11/11 04:17:45;;;;;;;;;;;;;;;;;;;;;
2021/11/11 04:20:12;;;;;;;13.75;8.55;;;;;;;5.09;94.27;101731.97;4959430;28;20581;-81
2021/11/11 04:22:39;;;;;;;13.55;7.15;;;;;;;5.09;94.43;101734.56;4947573;28;20129;-78
2021/11/11 04:25:08;;;;;;;15.00;8.10;;;;;;;5.07;94.59;101717.16;4963249;28;20438;-82
2021/11/11 04:27:40;;;;;;;14.18;9.43;;;;;;;5.05;94.52;101729.25;4967304;28;20101;-81
2021/11/11 04:30:14;;;;;;;14.68;8.70;;;;;;;4.98;94.46;101725.56;4941659;28;20150;-82
2021/11/11 04:32:41;;;;;;;16.80;8.73;;;;;;;4.98;94.72;101730.78;4951928;28;20101;-79
2021/11/11 04:35:09;;;;;;;13.25;8.57;;;;;;;4.97;95.33;101729.88;4966092;28;20043;-81
2021/11/11 04:37:43;;;;;;;14.32;7.82;;;;;;;4.99;94.91;101736.81;4954688;28;20409;-78
2021/11/11 04:40:37;;;;;;;15.68;8.75;;;;;;;5.01;95.24;101729.97;4965610;28;20042;-78
2021/11/11 04:43:14;;;;;;;11.45;9.32;;;;;;;5.04;95.50;101743.03;4965776;28;20126;-80
2021/11/11 04:49:06;;;;;;;13.48;8.35;;;;;;;5.05;95.52;101740.50;4954771;28;20121;-78
2021/11/11 04:51:53;;;;;;;11.68;7.47;;;;;;;5.06;95.59;101746.56;4961146;28;21210;-82
2021/11/11 05:00:06;;;;;;;9.85;7.82;;;;;;;5.02;96.17;101744.69;4934665;28;21704;-82
2021/11/11 05:02:52;;;;;;;14.00;9.25;;;;;;;5.03;95.99;101752.56;4950521;28;20058;-78
2021/11/11 05:05:19;;;;;;;12.23;7.85;;;;;;;5.04;96.04;101749.09;4950608;28;20070;-82
2021/11/11 05:07:56;;;;;;;;;;;;;;;;;;;;;
2021/11/11 05:10:24;;;;;;;16.48;7.95;;;;;;;5.08;96.25;101730.19;4928998;28;20058;-79
2021/11/11 05:12:50;;;;;;;17.25;9.68;;;;;;;5.07;96.18;101727.56;4945852;28;20694;-78
2021/11/11 05:15:18;;;;;;;13.18;8.10;;;;;;;5.05;96.07;101734.44;4941721;28;20066;-81
2021/11/11 05:17:46;;;;;;;16.88;9.10;;;;;;;4.99;96.29;101721.25;4967435;28;20401;-79
2021/11/11 05:20:15;;;;;;;13.77;8.52;;;;;;;4.99;96.54;101722.13;4959514;28;20054;-83
2021/11/11 05:22:43;;;;;;;14.77;8.57;;;;;;;5.00;96.34;101723.03;4962968;28;20745;-79
2021/11/11 05:25:12;;;;;;;11.75;7.93;;;;;;;5.02;96.38;101722.25;4962705;28;20050;-79
2021/11/11 05:27:42;;;;;;;9.93;7.95;;;;;;;5.04;96.28;101719.69;4945857;28;20635;-80
2021/11/11 05:30:10;;;;;;;16.80;8.90;;;;;;;5.03;96.60;101712.72;4959291;28;20042;-82
2021/11/11 05:32:37;;;;;;;13.18;9.10;;;;;;;5.03;96.42;101711.03;4948153;28;20126;-81
2021/11/11 05:35:08;;;;;;;18.83;9.55;;;;;;;5.03;96.23;101707.53;4969876;28;20054;-81
2021/11/11 05:37:35;;;;;;;12.65;9.15;;;;;;;5.05;96.37;101708.47;4980705;28;20149;-78
2021/11/11 05:40:01;;;;;;;11.55;8.60;;;;;;;5.07;96.23;101701.59;4975219;28;20071;-77
2021/11/11 05:42:28;;;;;;;11.45;8.20;;;;;;;5.09;96.35;101705.13;4978192;28;20046;-78
2021/11/11 05:44:54;;;;;;;12.43;7.20;;;;;;;5.10;96.78;101709.50;4976521;28;20402;-79
2021/11/11 05:47:21;;;;;;;17.52;9.50;;;;;;;5.09;96.39;101716.38;4971649;28;20050;-80
2021/11/11 05:49:48;;;;;;;15.73;9.80;;;;;;;5.06;96.55;101708.53;4975937;28;20042;-79
2021/11/11 05:52:14;;;;;;;12.93;8.35;;;;;;;5.07;96.66;101707.69;4966877;28;20095;-82
2021/11/11 05:54:41;;;;;;;11.60;8.93;;;;;;;5.09;96.60;101715.53;4970864;28;20548;-77
2021/11/11 05:57:08;;;;;;;12.90;9.20;;;;;;;5.10;96.75;101710.38;4971201;28;20047;-81
2021/11/11 05:59:38;;;;;;;20.25;8.82;;;;;;;5.11;96.60;101712.13;4955064;28;20050;-77
2021/11/11 06:02:10;;;;;;;13.13;9.30;;;;;;;5.11;96.80;101714.72;4971439;28;20174;-77
2021/11/11 06:04:37;;;;;;;14.10;9.77;;;;;;;5.09;96.99;101718.97;4954502;28;20054;-79
2021/11/11 06:07:06;;;;;;;16.48;9.52;;;;;;;5.09;96.86;101720.72;4954959;28;20043;-78
2021/11/11 06:09:33;;;;;;;19.17;8.93;;;;;;;5.08;97.34;101724.13;4971031;28;20047;-82
2021/11/11 06:12:00;;;;;;;15.05;9.55;;;;;;;5.07;97.43;101725.84;4971219;28;20336;-78
2021/11/11 06:14:27;;;;;;;13.35;9.48;;;;;;;5.08;97.44;101725.00;4969828;28;20117;-79
2021/11/11 06:16:54;;;;;;;14.55;9.63;;;;;;;5.10;97.54;101731.13;4953835;28;20042;-82
2021/11/11 06:19:21;;;;;;;12.90;8.82;;;;;;;5.13;97.77;101738.13;4957100;28;20082;-78
2021/11/11 06:21:49;;;;;;;15.65;10.13;;;;;;;5.18;97.59;101746.06;4954437;28;20096;-78
2021/11/11 06:24:16;;;;;;;17.05;9.57;;;;;;;5.22;97.44;101746.19;4953805;28;20047;-80
2021/11/11 06:26:46;;;;;;;14.48;8.48;;;;;;;5.27;97.56;101748.94;4954570;28;20061;-84
2021/11/11 06:29:13;;;;;;;15.75;9.70;;;;;;;5.30;97.49;101754.22;4971135;28;20055;-78
2021/11/11 06:31:40;;;;;;;14.63;9.20;;;;;;;5.33;97.08;101764.69;4958375;28;20043;-79
2021/11/11 06:34:07;;;;;;;13.77;9.52;;;;;;;5.36;97.15;101764.81;4957850;28;20630;-77
2021/11/11 06:36:33;;;;;;;16.45;9.65;;;;;;;5.37;96.99;101773.47;4959140;28;20382;-79
2021/11/11 06:39:00;;;;;;;15.27;9.43;;;;;;;5.39;97.11;101777.00;4956444;28;20666;-79
2021/11/11 06:41:27;;;;;;;17.45;9.90;;;;;;;5.40;96.93;101778.78;4954330;28;20145;-81
2021/11/11 06:43:56;;;;;;;17.38;10.65;;;;;;;5.41;97.03;101785.69;4944089;28;20046;-88
2021/11/11 06:46:23;;;;;;;17.15;10.13;;;;;;;5.42;96.97;101787.47;4973002;28;20050;-80
2021/11/11 06:48:50;;;;;;;16.00;9.85;;;;;;;5.43;96.76;101787.50;4955670;28;20042;-86
2021/11/11 06:51:17;;;;;;;15.77;9.43;;;;;;;5.45;96.78;101785.84;4956200;28;20051;-81
2021/11/11 06:53:43;;;;;;;14.20;9.57;;;;;;;5.47;96.56;101785.91;4971450;28;20046;-81
2021/11/11 06:56:10;;;;;;;19.88;10.02;;;;;;;5.50;96.55;101786.00;4973497;28;20063;-78
2021/11/11 06:58:38;;;;;;;16.20;8.82;;;;;;;5.51;96.69;101790.34;4954325;28;20071;-78
2021/11/11 07:01:05;;;;;;;21.25;10.65;;;;;;;5.55;96.32;101793.91;4959840;28;20043;-79
2021/11/11 07:03:32;;;;;;;13.48;9.13;;;;;;;5.55;96.50;101793.91;4958599;28;20047;-81
2021/11/11 07:05:59;;;;;;;14.32;10.00;;;;;;;5.56;96.46;101796.56;4968743;28;20055;-81
2021/11/11 07:08:29;;;;;;;17.73;12.05;;;;;;;5.58;96.33;101791.41;4955108;28;20093;-80
2021/11/11 07:10:56;;;;;;;17.67;9.68;;;;;;;5.57;96.25;101793.13;4953666;28;20055;-81
2021/11/11 07:13:23;;;;;;;16.27;9.63;;;;;;;5.59;96.14;101785.38;4950177;28;20066;-82
2021/11/11 07:15:50;;;;;;;21.65;11.50;;;;;;;5.61;96.04;101789.78;4965712;28;20146;-78
2021/11/11 07:18:17;;;;;;;15.95;10.15;;;;;;;5.64;96.05;101791.59;4964372;28;20050;-83
2021/11/11 07:20:46;;;;;;;17.60;9.95;;;;;;;5.65;95.79;101782.97;4951663;28;20101;-85
2021/11/11 07:23:16;;;;;;;16.27;9.60;;;;;;;5.69;95.72;101792.63;4982962;28;20057;-84
2021/11/11 07:25:44;;;;;;;15.85;10.52;;;;;;;5.73;95.49;101791.00;4955830;28;20507;-81
2021/11/11 07:28:11;;;;;;;19.55;11.13;;;;;;;5.74;95.60;101793.63;4968093;28;20042;-80
2021/11/11 07:30:38;;;;;;;19.92;10.63;;;;;;;5.78;95.51;101797.22;4968414;28;20042;-81
2021/11/11 07:33:04;;;;;;;14.23;8.95;;;;;;;5.79;95.07;101793.78;4968393;28;20046;-80
2021/11/11 07:35:36;;;;;;;16.52;10.05;;;;;;;5.82;94.99;101793.84;4964790;28;20059;-78
2021/11/11 07:38:05;;;;;;;13.80;9.55;;;;;;;5.86;94.94;101800.91;4937479;28;20695;-77
2021/11/11 07:40:32;;;;;;;14.43;10.20;;;;;;;5.91;94.93;101799.31;4950961;28;20133;-79
2021/11/11 07:42:58;;;;;;;18.13;11.73;;;;;;;5.93;94.52;101799.34;4965891;28;20049;-83
2021/11/11 07:45:28;;;;;;;17.33;9.82;;;;;;;5.94;94.70;101802.03;4934735;28;20074;-78
2021/11/11 07:47:55;;;;;;;13.43;9.05;;;;;;;5.97;94.57;101804.69;4949708;28;20137;-83
2021/11/11 07:50:25;;;;;;;16.38;10.68;;;;;;;6.00;94.32;101801.34;4965872;28;20470;-80
2021/11/11 07:52:52;;;;;;;17.30;9.93;;;;;;;6.02;94.08;101799.66;4950110;28;20133;-77
2021/11/11 07:55:20;;;;;;;14.68;9.52;;;;;;;6.03;94.00;101804.00;4965962;28;20049;-81
2021/11/11 07:57:47;;;;;;;13.63;8.75;;;;;;;6.05;94.29;101793.66;4971424;28;20074;-83
2021/11/11 08:00:15;;;;;;;19.08;9.68;;;;;;;6.07;94.12;101798.06;4962350;28;20181;-80
2021/11/11 08:02:43;;;;;;;13.45;8.95;;;;;;;6.09;94.03;101804.19;4956011;28;20137;-78
2021/11/11 08:05:13;;;;;;;17.58;9.80;;;;;;;6.13;94.11;101803.44;4966705;28;20517;-80
2021/11/11 08:07:43;;;;;;;15.77;7.65;;;;;;;6.18;93.73;101808.78;4949704;28;20485;-79
2021/11/11 08:10:10;;;;;;;14.55;8.10;;;;;;;6.23;93.86;101808.88;4965497;28;20078;-79
2021/11/11 08:12:36;;;;;;;15.27;8.63;;;;;;;6.28;93.40;101795.19;4968168;28;20047;-81
2021/11/11 08:15:04;;;;;;;13.50;8.85;;;;;;;6.35;93.52;101798.84;4969498;28;20069;-81
2021/11/11 08:17:31;;;;;;;12.15;7.75;;;;;;;6.42;93.22;101797.28;4966417;28;20053;-79
2021/11/11 08:19:58;;;;;;;13.75;8.32;;;;;;;6.48;92.88;101797.44;4965890;28;20050;-79
2021/11/11 08:22:27;;;;;;;16.65;9.98;;;;;;;6.53;93.05;101801.03;4966163;28;20125;-78
2021/11/11 08:24:55;;;;;;;16.65;9.70;;;;;;;6.58;92.73;101796.84;4935762;28;20084;-88
2021/11/11 08:27:24;;;;;;;11.02;7.07;;;;;;;6.64;92.62;101787.44;4952033;28;20051;-80
2021/11/11 08:29:52;;;;;;;13.82;8.13;;;;;;;6.72;92.61;101793.72;4935678;28;20497;-79
2021/11/11 08:32:19;;;;;;;14.15;8.13;;;;;;;6.77;92.52;101792.09;4955538;28;20042;-78
2021/11/11 08:34:49;;;;;;;14.45;8.52;;;;;;;6.84;92.23;101795.72;4953648;28;20067;-80
2021/11/11 08:37:16;;;;;;;13.13;8.00;;;;;;;6.89;91.95;101795.00;4953491;28;20050;-81
2021/11/11 08:39:43;;;;;;;13.02;8.65;;;;;;;6.95;91.93;101787.34;4955422;28;20038;-81
2021/11/11 08:42:12;;;;;;;12.52;8.32;;;;;;;7.02;91.56;101790.09;4972820;28;20517;-79
2021/11/11 08:44:43;;;;;;;13.32;7.55;;;;;;;7.05;91.50;101782.34;4956033;28;20474;-78
2021/11/11 08:47:19;;;;;;;11.05;7.88;;;;;;;7.09;91.46;101782.47;4958106;28;20081;-80
2021/11/11 08:49:50;;;;;;;11.50;7.30;;;;;;;7.16;91.09;101785.19;4958064;28;20078;-80
2021/11/11 08:52:17;;;;;;;24.90;8.85;;;;;;;7.23;91.10;101787.13;4974189;28;20074;-80
2021/11/11 08:54:44;;;;;;;13.15;8.43;;;;;;;7.27;90.92;101786.34;4958594;28;21280;-78
2021/11/11 08:57:12;;;;;;;15.88;9.60;;;;;;;7.31;91.02;101787.28;4975494;28;20063;-78
2021/11/11 08:59:39;;;;;;;12.40;7.78;;;;;;;7.37;90.92;101787.44;4973636;28;20045;-81
2021/11/11 09:02:08;;;;;;;14.52;8.38;;;;;;;7.40;90.64;101788.38;4956596;28;20492;-79
2021/11/11 09:04:34;;;;;;;22.55;8.35;;;;;;;7.47;90.32;101788.50;4954996;28;20050;-83
2021/11/11 09:07:01;;;;;;;13.73;8.80;;;;;;;7.51;90.11;101783.41;4976221;28;20061;-86
2021/11/11 09:09:28;;;;;;;14.57;8.43;;;;;;;7.57;90.10;101782.66;4965555;28;20105;-79
2021/11/11 09:11:55;;;;;;;11.32;8.38;;;;;;;7.64;89.81;101784.56;4954442;28;20501;-79
2021/11/11 09:14:22;;;;;;;15.30;8.82;;;;;;;7.70;89.58;101795.09;4955423;28;20698;-81
2021/11/11 09:16:49;;;;;;;16.45;8.30;;;;;;;7.76;89.53;101787.41;4953716;28;20157;-79
2021/11/11 09:19:15;;;;;;;9.05;7.72;;;;;;;7.82;89.13;101784.03;4969365;28;20043;-80
2021/11/11 09:21:42;;;;;;;15.57;8.38;;;;;;;7.88;89.12;101789.38;4951087;28;20241;-79
2021/11/11 09:24:11;;;;;;;12.48;8.00;;;;;;;7.91;88.90;101791.19;4970349;28;20405;-78
2021/11/11 09:26:40;;;;;;;16.88;7.70;;;;;;;7.96;88.87;101786.94;4974208;28;20145;-80
2021/11/11 09:29:09;;;;;;;11.52;7.95;;;;;;;8.08;89.14;101787.19;4971939;28;20034;-79
2021/11/11 09:31:38;;;;;;;11.10;7.47;;;;;;;8.21;88.73;101784.81;4967545;28;20140;-80
2021/11/11 09:34:07;;;;;;;10.60;7.25;;;;;;;8.33;88.48;101800.72;4972028;28;20038;-83
2021/11/11 09:36:34;;;;;;;14.50;7.97;;;;;;;8.47;87.94;101802.72;4976659;28;20043;-81
2021/11/11 09:39:06;;;;;;;13.88;7.70;;;;;;;8.52;87.37;101806.28;4979064;28;20042;-87
2021/11/11 09:41:34;;;;;;;16.58;8.13;;;;;;;8.54;87.08;101802.84;4960182;28;20051;-79
2021/11/11 09:44:02;;;;;;;13.73;7.63;;;;;;;8.57;87.24;101807.25;4942784;28;20122;-80
2021/11/11 09:46:29;;;;;;;13.00;7.35;;;;;;;8.58;87.29;101802.06;4961718;28;20050;-84
2021/11/11 09:48:55;;;;;;;13.77;7.95;;;;;;;8.60;86.96;101810.81;4961551;28;20038;-84
2021/11/11 09:51:23;;;;;;;11.50;7.95;;;;;;;8.66;87.07;101798.72;4964852;28;20089;-79
2021/11/11 09:58:34;;;;;;;9.35;6.93;;;;;;;8.75;86.80;101801.47;4981405;28;20046;-85
2021/11/11 09:59:56;;;;;;;11.57;7.25;;;;;;;9.10;86.29;101796.81;4967616;28;20035;-87
2021/11/11 10:02:24;;;;;;;11.82;7.65;;;;;;;9.30;85.41;101791.03;4968592;28;20066;-79
2021/11/11 10:04:53;;;;;;;8.43;6.32;;;;;;;9.49;84.86;101801.72;4964949;28;20059;-78
2021/11/11 10:07:20;;;;;;;8.88;6.05;;;;;;;9.64;84.51;101795.84;4961660;28;20476;-78
2021/11/11 10:09:47;;;;;;;7.40;6.03;;;;;;;9.76;83.73;101799.50;4954406;28;20465;-79
2021/11/11 10:12:23;;;;;;;11.43;5.90;;;;;;;9.91;83.58;101797.94;4956280;28;20073;-78
2021/11/11 10:14:52;;;;;;;11.77;5.78;;;;;;;10.06;83.07;101792.91;4957765;28;20047;-78
2021/11/11 10:17:22;;;;;;;12.18;5.90;;;;;;;10.20;82.37;101793.03;4960498;28;20123;-78
2021/11/11 10:19:54;;;;;;;9.02;5.53;;;;;;;10.33;82.00;101795.78;4968874;28;20133;-79
2021/11/11 10:22:25;;;;;;;6.97;5.93;;;;;;;10.47;81.65;101790.72;4974787;28;20480;-79
2021/11/11 10:25:02;;;;;;;5.82;5.22;;;;;;;10.61;80.37;101778.63;4959023;28;20118;-81
2021/11/11 10:27:36;;;;;;;4.55;3.92;;;;;;;10.73;78.85;101778.75;4970806;28;20494;-79
2021/11/11 10:30:25;;;;;;;4.05;3.72;;;;;;;10.73;78.35;101770.03;4969759;28;20054;-79
2021/11/11 10:33:06;;;;;;;3.50;3.20;;;;;;;10.78;77.52;101772.66;4973129;28;20042;-81
2021/11/11 10:35:36;;;;;;;3.90;3.60;;;;;;;10.84;78.71;101772.72;4970381;28;20043;-81
2021/11/11 10:38:19;;;;;;;3.85;3.55;;;;;;;10.85;77.40;101771.88;4954703;28;20061;-81
2021/11/11 10:40:52;;;;;;;4.43;3.53;;;;;;;10.83;77.03;101765.72;4970914;28;20050;-78
2021/11/11 10:43:28;;;;;;;5.65;3.13;;;;;;;10.63;77.72;101770.81;4962379;28;20051;-78
2021/11/11 10:45:56;;;;;;;2.97;2.72;;;;;;;10.34;78.72;101771.34;4971810;28;20053;-80
2021/11/11 10:48:26;;;;;;;3.63;3.33;;;;;;;10.28;80.10;101761.72;4942391;28;20046;-80
2021/11/11 10:50:59;;;;;;;4.47;3.85;;;;;;;10.20;80.12;101759.00;4969943;28;20069;-79
2021/11/11 10:53:36;;;;;;;4.82;4.35;;;;;;;10.15;80.11;101760.69;4966663;28;20383;-83
2021/11/11 10:56:05;;;;;;;4.00;3.42;;;;;;;9.98;80.82;101750.06;4950357;28;20054;-79
2021/11/11 10:58:36;;;;;;;4.18;3.08;;;;;;;9.90;80.81;101755.19;4972596;28;20047;-80
2021/11/11 11:01:10;;;;;;;2.88;2.67;;;;;;;9.90;81.16;101752.56;4956161;28;20051;-79
2021/11/11 11:03:47;;;;;;;;;;;;;;;9.96;80.73;101748.28;4971339;28;20468;-82
2021/11/11 11:06:26;;;;;;;2.58;2.25;;;;;;;10.18;80.50;101750.28;4954128;28;19930;-84
2021/11/11 11:08:59;;;;;;;2.00;1.35;;;;;;;10.43;78.71;101742.72;4974543;28;20488;-78
2021/11/11 11:11:34;;;;;;;1.90;1.30;;;;;;;10.59;78.15;101738.47;4966943;28;20585;-79
2021/11/11 11:14:17;;;;;;;1.13;1.13;;;;;;;10.70;77.59;101742.06;4952111;28;20046;-79
2021/11/11 11:16:44;;;;;;;1.52;1.50;;;;;;;10.65;76.95;101738.53;4949353;28;20042;-79
2021/11/11 11:19:17;;;;;;;2.13;2.00;;;;;;;10.66;77.27;101740.25;4952582;28;20478;-79
2021/11/11 11:21:54;;;;;;;2.08;1.98;;;;;;;10.63;76.16;101745.47;4969398;28;20042;-80
2021/11/11 11:24:28;;;;;;;6.18;4.03;;;;;;;10.57;76.58;101738.47;4970560;28;20071;-79
2021/11/11 11:27:04;;;;;;;3.03;2.63;;;;;;;10.63;76.55;101737.63;4965870;28;20105;-79
2021/11/11 11:29:40;;;;;;;3.78;3.47;;;;;;;10.69;75.44;101744.66;4950016;28;20623;-79
2021/11/11 11:32:17;;;;;;;3.85;2.90;;;;;;;10.69;75.01;101742.94;4949795;28;20412;-80
2021/11/11 11:34:52;;;;;;;3.38;3.08;;;;;;;10.59;75.74;101751.56;4947859;28;20563;-82
2021/11/11 11:37:24;;;;;;;3.83;3.38;;;;;;;10.55;75.85;101748.03;4968503;28;20481;-80
2021/11/11 11:40:03;;;;;;;3.53;3.20;;;;;;;10.63;76.17;101742.00;4934882;28;20371;-79
2021/11/11 11:42:39;;;;;;;3.50;3.17;;;;;;;10.71;75.72;101751.66;4964891;28;20492;-81
2021/11/11 11:45:23;;;;;;;3.95;3.33;;;;;;;10.79;75.35;101759.56;4949173;28;20043;-79
2021/11/11 11:47:55;;;;;;;5.78;3.13;;;;;;;10.90;75.06;101760.53;4948030;28;20142;-81
2021/11/11 11:50:40;;;;;;;3.38;3.08;;;;;;;10.97;74.66;101757.97;4951729;28;20047;-79